Time,TemperatureF,DewpointF,PressureIn,WindDirection,WindDirectionDegrees,WindSpeedMPH,WindSpeedGustMPH,Humidity,HourlyPrecipIn,Conditions,Clouds,dailyrainin,SoftwareType,DateUTC
2013-01-24 00:03:00,13.0,-99.9,-100.00,North,355,10.0,18.0,-999,0.00,,,0.00,,2013-01-24 06:03:00,
2013-01-24 00:12:00,13.0,-99.9,-100.00,North,355,10.0,18.0,-999,0.00,,,0.00,,2013-01-24 06:12:00,
2013-01-24 00:22:00,13.0,-99.9,-100.00,North,355,10.0,18.0,-999,0.00,,,0.00,,2013-01-24 06:22:00,
2013-01-24 00:33:00,12.0,-99.9,-100.00,NNW,344,14.0,20.0,-999,0.00,,,0.00,,2013-01-24 06:33:00,
2013-01-24 00:43:00,12.0,-99.9,-100.00,NNW,344,14.0,20.0,-999,0.00,,,0.00,,2013-01-24 06:43:00,
2013-01-24 00:53:00,12.0,-99.9,-100.00,NNW,344,14.0,20.0,-999,0.00,,,0.00,,2013-01-24 06:53:00,
2013-01-24 01:03:00,11.0,-99.9,-100.00,NNW,348,11.0,15.0,-999,0.00,,,0.00,,2013-01-24 07:03:00,
2013-01-24 01:13:00,11.0,-99.9,-100.00,NNW,348,11.0,15.0,-999,0.00,,,0.00,,2013-01-24 07:13:00,
2013-01-24 01:23:00,11.0,-99.9,-100.00,NNW,348,11.0,15.0,-999,0.00,,,0.00,,2013-01-24 07:23:00,
2013-01-24 01:34:00,10.0,-99.9,-100.00,North,354,9.0,14.0,-999,0.00,,,0.00,,2013-01-24 07:34:00,
2013-01-24 01:43:00,10.0,-99.9,-100.00,North,354,9.0,14.0,-999,0.00,,,0.00,,2013-01-24 07:43:00,
2013-01-24 01:53:00,10.0,-99.9,-100.00,North,354,9.0,14.0,-999,0.00,,,0.00,,2013-01-24 07:53:00,
2013-01-24 02:03:00,9.0,-99.9,-100.00,North,356,11.0,16.0,-999,0.00,,,0.00,,2013-01-24 08:03:00,
2013-01-24 02:13:00,9.0,-99.9,-100.00,North,356,11.0,16.0,-999,0.00,,,0.00,,2013-01-24 08:13:00,
2013-01-24 02:23:00,9.0,-99.9,-100.00,North,356,11.0,16.0,-999,0.00,,,0.00,,2013-01-24 08:23:00,
2013-01-24 02:33:00,9.0,-99.9,-100.00,NNW,348,10.0,14.0,-999,0.00,,,0.00,,2013-01-24 08:33:00,
2013-01-24 02:43:00,9.0,-99.9,-100.00,NNW,348,10.0,14.0,-999,0.00,,,0.00,,2013-01-24 08:43:00,
2013-01-24 02:53:00,9.0,-99.9,-100.00,NNW,348,10.0,14.0,-999,0.00,,,0.00,,2013-01-24 08:53:00,
2013-01-24 03:03:00,8.0,-99.9,-100.00,North,2,10.0,15.0,-999,0.00,,,0.00,,2013-01-24 09:03:00,
2013-01-24 03:13:00,8.0,-99.9,-100.00,North,2,10.0,15.0,-999,0.00,,,0.00,,2013-01-24 09:13:00,
2013-01-24 03:23:00,8.0,-99.9,-100.00,North,2,10.0,15.0,-999,0.00,,,0.00,,2013-01-24 09:23:00,
2013-01-24 03:34:00,7.0,-99.9,-100.00,North,354,9.0,17.0,-999,0.00,,,0.00,,2013-01-24 09:34:00,
2013-01-24 03:43:00,7.0,-99.9,-100.00,North,354,9.0,17.0,-999,0.00,,,0.00,,2013-01-24 09:43:00,
2013-01-24 03:53:00,7.0,-99.9,-100.00,North,354,9.0,17.0,-999,0.00,,,0.00,,2013-01-24 09:53:00,
2013-01-24 04:03:00,7.0,-99.9,-100.00,North,355,9.0,14.0,-999,0.00,,,0.00,,2013-01-24 10:03:00,
2013-01-24 04:13:00,7.0,-99.9,-100.00,North,355,9.0,14.0,-999,0.00,,,0.00,,2013-01-24 10:13:00,
2013-01-24 04:23:00,7.0,-99.9,-100.00,North,355,9.0,14.0,-999,0.00,,,0.00,,2013-01-24 10:23:00,
2013-01-24 04:34:00,7.0,-99.9,-100.00,North,-999,7.0,11.0,-999,0.00,,,0.00,,2013-01-24 10:34:00,
2013-01-24 04:44:00,7.0,-99.9,-100.00,North,-999,7.0,11.0,-999,0.00,,,0.00,,2013-01-24 10:44:00,
2013-01-24 04:53:00,7.0,-99.9,-100.00,North,-999,7.0,11.0,-999,0.00,,,0.00,,2013-01-24 10:53:00,
2013-01-24 05:03:00,6.0,-99.9,-100.00,NNW,347,8.0,12.0,-999,0.00,,,0.00,,2013-01-24 11:03:00,
2013-01-24 05:13:00,6.0,-99.9,-100.00,NNW,347,8.0,12.0,-999,0.00,,,0.00,,2013-01-24 11:13:00,
2013-01-24 05:23:00,6.0,-99.9,-100.00,NNW,347,8.0,12.0,-999,0.00,,,0.00,,2013-01-24 11:23:00,
2013-01-24 05:34:00,6.0,-99.9,-100.00,North,7,10.0,15.0,-999,0.00,,,0.00,,2013-01-24 11:34:00,
2013-01-24 05:43:00,6.0,-99.9,-100.00,North,7,10.0,15.0,-999,0.00,,,0.00,,2013-01-24 11:43:00,
2013-01-24 05:53:00,6.0,-99.9,-100.00,North,7,10.0,15.0,-999,0.00,,,0.00,,2013-01-24 11:53:00,
2013-01-24 06:03:00,5.0,-99.9,-100.00,North,2,7.0,11.0,-999,0.00,,,0.00,,2013-01-24 12:03:00,
2013-01-24 06:12:00,5.0,-99.9,-100.00,North,2,7.0,11.0,-999,0.00,,,0.00,,2013-01-24 12:12:00,
2013-01-24 06:23:00,5.0,-99.9,-100.00,North,2,7.0,11.0,-999,0.00,,,0.00,,2013-01-24 12:23:00,
2013-01-24 06:30:00,5.0,-99.9,-100.00,North,-999,7.0,12.0,-999,0.00,,,0.00,,2013-01-24 12:30:00,
2013-01-24 06:33:00,5.0,-99.9,-100.00,NNE,17,7.0,10.0,-999,0.00,,,0.00,,2013-01-24 12:33:00,
2013-01-24 06:43:00,5.0,-99.9,-100.00,NNE,17,7.0,10.0,-999,0.00,,,0.00,,2013-01-24 12:43:00,
2013-01-24 06:53:00,5.0,-99.9,-100.00,NNE,17,7.0,10.0,-999,0.00,,,0.00,,2013-01-24 12:53:00,
2013-01-24 07:03:00,5.0,-99.9,-100.00,North,-999,7.0,12.0,-999,0.00,,,0.00,,2013-01-24 13:03:00,
2013-01-24 07:13:00,5.0,-99.9,-100.00,North,-999,7.0,12.0,-999,0.00,,,0.00,,2013-01-24 13:13:00,
2013-01-24 07:23:00,5.0,-99.9,-100.00,North,-999,7.0,12.0,-999,0.00,,,0.00,,2013-01-24 13:23:00,
2013-01-24 08:03:00,5.0,-99.9,-100.00,NNE,32,6.0,9.0,-999,0.00,,,0.00,,2013-01-24 14:03:00,
2013-01-24 08:13:00,5.0,-99.9,-100.00,NNE,32,6.0,9.0,-999,0.00,,,0.00,,2013-01-24 14:13:00,
2013-01-24 08:23:00,5.0,-99.9,-100.00,NNE,32,6.0,9.0,-999,0.00,,,0.00,,2013-01-24 14:23:00,
2013-01-24 08:33:00,6.0,-99.9,-100.00,NNE,17,8.0,12.0,-999,0.00,,,0.00,,2013-01-24 14:33:00,
2013-01-24 08:44:00,6.0,-99.9,-100.00,NNE,17,8.0,12.0,-999,0.00,,,0.00,,2013-01-24 14:44:00,
2013-01-24 08:54:00,6.0,-99.9,-100.00,NNE,17,8.0,12.0,-999,0.00,,,0.00,,2013-01-24 14:54:00,
2013-01-24 09:04:00,7.0,-99.9,-100.00,NNE,12,6.0,11.0,-999,0.00,,,0.00,,2013-01-24 15:04:00,
2013-01-24 09:13:00,7.0,-99.9,-100.00,NNE,12,6.0,11.0,-999,0.00,,,0.00,,2013-01-24 15:13:00,
2013-01-24 09:23:00,7.0,-99.9,-100.00,NNE,12,6.0,11.0,-999,0.00,,,0.00,,2013-01-24 15:23:00,
2013-01-24 09:33:00,7.0,-99.9,-100.00,NE,45,8.0,12.0,-999,0.00,,,0.00,,2013-01-24 15:33:00,
2013-01-24 09:43:00,7.0,-99.9,-100.00,NE,45,8.0,12.0,-999,0.00,,,0.00,,2013-01-24 15:43:00,
2013-01-24 09:53:00,7.0,-99.9,-100.00,NE,45,8.0,12.0,-999,0.00,,,0.00,,2013-01-24 15:53:00,
2013-01-24 10:04:00,7.0,-99.9,-100.00,NE,41,8.0,11.0,-999,0.00,,,0.00,,2013-01-24 16:04:00,
2013-01-24 10:12:00,7.0,-99.9,-100.00,NE,41,8.0,11.0,-999,0.00,,,0.00,,2013-01-24 16:12:00,
2013-01-24 10:23:00,7.0,-99.9,-100.00,NE,41,8.0,11.0,-999,0.00,,,0.00,,2013-01-24 16:23:00,
2013-01-24 10:34:00,7.0,-99.9,-100.00,ENE,64,11.0,15.0,-999,0.00,,,0.00,,2013-01-24 16:34:00,
2013-01-24 10:43:00,7.0,-99.9,-100.00,ENE,64,11.0,15.0,-999,0.00,,,0.00,,2013-01-24 16:43:00,
2013-01-24 11:03:00,10.0,-99.9,-100.00,East,82,7.0,10.0,-999,0.00,,,0.00,,2013-01-24 17:03:00,
2013-01-24 11:12:00,10.0,-99.9,-100.00,East,82,7.0,10.0,-999,0.00,,,0.00,,2013-01-24 17:12:00,
2013-01-24 11:22:00,10.0,-99.9,-100.00,East,82,7.0,10.0,-999,0.00,,,0.00,,2013-01-24 17:22:00,
2013-01-24 11:30:00,13.0,-99.9,-100.00,East,79,7.0,10.0,-999,0.00,,,0.00,,2013-01-24 17:30:00,
2013-01-24 11:33:00,10.0,-99.9,-100.00,ENE,68,8.0,11.0,-999,0.00,,,0.00,,2013-01-24 17:33:00,
2013-01-24 11:43:00,10.0,-99.9,-100.00,ENE,68,8.0,11.0,-999,0.00,,,0.00,,2013-01-24 17:43:00,
2013-01-24 11:53:00,10.0,-99.9,-100.00,ENE,68,8.0,11.0,-999,0.00,,,0.00,,2013-01-24 17:53:00,
2013-01-24 12:03:00,13.0,-99.9,-100.00,East,79,7.0,10.0,-999,0.00,,,0.00,,2013-01-24 18:03:00,
2013-01-24 12:13:00,13.0,-99.9,-100.00,East,79,7.0,10.0,-999,0.00,,,0.00,,2013-01-24 18:13:00,
2013-01-24 12:23:00,13.0,-99.9,-100.00,East,79,7.0,10.0,-999,0.00,,,0.00,,2013-01-24 18:23:00,
2013-01-24 13:00:00,14.0,-99.9,-100.00,ENE,62,6.0,10.0,-999,0.00,,,0.00,,2013-01-24 19:00:00,
2013-01-24 13:03:00,13.0,-99.9,-100.00,ENE,61,9.0,11.0,-999,0.00,,,0.00,,2013-01-24 19:03:00,
2013-01-24 13:13:00,13.0,-99.9,-100.00,ENE,61,9.0,11.0,-999,0.00,,,0.00,,2013-01-24 19:13:00,
2013-01-24 13:22:00,13.0,-99.9,-100.00,ENE,61,9.0,11.0,-999,0.00,,,0.00,,2013-01-24 19:22:00,
2013-01-24 13:33:00,14.0,-99.9,-100.00,ENE,62,6.0,10.0,-999,0.00,,,0.00,,2013-01-24 19:33:00,
2013-01-24 13:42:00,14.0,-99.9,-100.00,ENE,62,6.0,10.0,-999,0.00,,,0.00,,2013-01-24 19:42:00,
2013-01-24 13:53:00,14.0,-99.9,-100.00,ENE,62,6.0,10.0,-999,0.00,,,0.00,,2013-01-24 19:53:00,
2013-01-24 14:00:00,19.0,-99.9,-100.00,ENE,72,3.0,6.0,-999,0.00,,,0.00,,2013-01-24 20:00:00,
2013-01-24 14:33:00,19.0,-99.9,-100.00,ENE,72,3.0,6.0,-999,0.00,,,0.00,,2013-01-24 20:33:00,
2013-01-24 14:43:00,19.0,-99.9,-100.00,ENE,72,3.0,6.0,-999,0.00,,,0.00,,2013-01-24 20:43:00,
2013-01-24 14:53:00,19.0,-99.9,-100.00,ENE,72,3.0,6.0,-999,0.00,,,0.00,,2013-01-24 20:53:00,
2013-01-24 15:33:00,21.0,-99.9,-100.00,ESE,106,6.0,11.0,-999,0.00,,,0.00,,2013-01-24 21:33:00,
2013-01-24 15:44:00,21.0,-99.9,-100.00,ESE,106,6.0,11.0,-999,0.00,,,0.00,,2013-01-24 21:44:00,
2013-01-24 15:53:00,21.0,-99.9,-100.00,ESE,106,6.0,11.0,-999,0.00,,,0.00,,2013-01-24 21:53:00,
2013-01-24 16:03:00,20.0,-99.9,-100.00,ENE,76,8.0,12.0,-999,0.00,,,0.00,,2013-01-24 22:03:00,
2013-01-24 16:12:00,20.0,-99.9,-100.00,ENE,76,8.0,12.0,-999,0.00,,,0.00,,2013-01-24 22:12:00,
2013-01-24 16:23:00,20.0,-99.9,-100.00,ENE,76,8.0,12.0,-999,0.00,,,0.00,,2013-01-24 22:23:00,
2013-01-24 16:33:00,21.0,-99.9,-100.00,ESE,107,5.0,9.0,-999,0.00,,,0.00,,2013-01-24 22:33:00,
2013-01-24 16:43:00,21.0,-99.9,-100.00,ESE,107,5.0,9.0,-999,0.00,,,0.00,,2013-01-24 22:43:00,
2013-01-24 16:53:00,21.0,-99.9,-100.00,ESE,107,5.0,9.0,-999,0.00,,,0.00,,2013-01-24 22:53:00,
2013-01-24 17:03:00,20.0,-99.9,-100.00,East,85,9.0,13.0,-999,0.00,,,0.00,,2013-01-24 23:03:00,
2013-01-24 17:13:00,20.0,-99.9,-100.00,East,85,9.0,13.0,-999,0.00,,,0.00,,2013-01-24 23:13:00,
2013-01-24 17:22:00,20.0,-99.9,-100.00,East,85,9.0,13.0,-999,0.00,,,0.00,,2013-01-24 23:22:00,
2013-01-24 17:33:00,22.0,-99.9,-100.00,ESE,118,6.0,9.0,-999,0.00,,,0.00,,2013-01-24 23:33:00,
2013-01-24 17:43:00,22.0,-99.9,-100.00,ESE,118,6.0,9.0,-999,0.00,,,0.00,,2013-01-24 23:43:00,
2013-01-24 17:53:00,22.0,-99.9,-100.00,ESE,118,6.0,9.0,-999,0.00,,,0.00,,2013-01-24 23:53:00,
2013-01-24 18:03:00,20.0,-99.9,-100.00,ESE,118,8.0,11.0,-999,0.00,,,0.00,,2013-01-25 00:03:00,
2013-01-24 18:12:00,20.0,-99.9,-100.00,ESE,118,8.0,11.0,-999,0.00,,,0.00,,2013-01-25 00:12:00,
2013-01-24 18:22:00,20.0,-99.9,-100.00,ESE,118,8.0,11.0,-999,0.00,,,0.00,,2013-01-25 00:22:00,
2013-01-24 18:32:00,20.0,-99.9,-100.00,SE,130,7.0,11.0,-999,0.00,,,0.00,,2013-01-25 00:32:00,
2013-01-24 18:42:00,20.0,-99.9,-100.00,SE,130,7.0,11.0,-999,0.00,,,0.00,,2013-01-25 00:42:00,
2013-01-24 18:53:00,20.0,-99.9,-100.00,SE,130,7.0,11.0,-999,0.00,,,0.00,,2013-01-25 00:53:00,
2013-01-24 19:00:00,20.0,-99.9,-100.00,East,99,6.0,10.0,-999,0.00,,,0.00,,2013-01-25 01:00:00,
2013-01-24 19:02:00,20.0,-99.9,-100.00,ESE,111,7.0,10.0,-999,0.00,,,0.00,,2013-01-25 01:02:00,
2013-01-24 19:13:00,20.0,-99.9,-100.00,ESE,111,7.0,10.0,-999,0.00,,,0.00,,2013-01-25 01:13:00,
2013-01-24 19:22:00,20.0,-99.9,-100.00,ESE,111,7.0,10.0,-999,0.00,,,0.00,,2013-01-25 01:22:00,
2013-01-24 19:33:00,20.0,-99.9,-100.00,East,99,6.0,10.0,-999,0.00,,,0.00,,2013-01-25 01:33:00,
2013-01-24 19:43:00,20.0,-99.9,-100.00,East,99,6.0,10.0,-999,0.00,,,0.00,,2013-01-25 01:43:00,
2013-01-24 19:52:00,20.0,-99.9,-100.00,East,99,6.0,10.0,-999,0.00,,,0.00,,2013-01-25 01:52:00,
2013-01-24 20:43:00,19.0,-99.9,-100.00,ESE,108,5.0,8.0,-999,0.00,,,0.00,,2013-01-25 02:43:00,
2013-01-24 20:53:00,19.0,-99.9,-100.00,ESE,108,5.0,8.0,-999,0.00,,,0.00,,2013-01-25 02:53:00,
2013-01-24 21:02:00,20.0,-99.9,-100.00,East,85,7.0,9.0,-999,0.00,,,0.00,,2013-01-25 03:02:00,
2013-01-24 21:12:00,20.0,-99.9,-100.00,East,85,7.0,9.0,-999,0.00,,,0.00,,2013-01-25 03:12:00,
2013-01-24 21:22:00,20.0,-99.9,-100.00,East,85,7.0,9.0,-999,0.00,,,0.00,,2013-01-25 03:22:00,
2013-01-24 21:33:00,20.0,-99.9,-100.00,East,100,5.0,8.0,-999,0.00,,,0.00,,2013-01-25 03:33:00,
2013-01-24 21:42:00,20.0,-99.9,-100.00,East,100,5.0,8.0,-999,0.00,,,0.00,,2013-01-25 03:42:00,
2013-01-24 21:53:00,20.0,-99.9,-100.00,East,100,5.0,8.0,-999,0.00,,,0.00,,2013-01-25 03:53:00,
2013-01-24 22:02:00,21.0,-99.9,-100.00,ESE,104,5.0,8.0,-999,0.00,,,0.00,,2013-01-25 04:02:00,
2013-01-24 22:12:00,21.0,-99.9,-100.00,ESE,104,5.0,8.0,-999,0.00,,,0.00,,2013-01-25 04:12:00,
2013-01-24 22:23:00,21.0,-99.9,-100.00,ESE,104,5.0,8.0,-999,0.00,,,0.00,,2013-01-25 04:23:00,
2013-01-24 22:32:00,20.0,-99.9,-100.00,ESE,116,7.0,11.0,-999,0.00,,,0.00,,2013-01-25 04:32:00,
2013-01-24 22:42:00,20.0,-99.9,-100.00,ESE,116,7.0,11.0,-999,0.00,,,0.00,,2013-01-25 04:42:00,
2013-01-24 22:52:00,20.0,-99.9,-100.00,ESE,116,7.0,11.0,-999,0.00,,,0.00,,2013-01-25 04:52:00,
2013-01-24 23:00:00,21.0,-99.9,-100.00,ESE,118,5.0,7.0,-999,0.00,,,0.00,,2013-01-25 05:00:00,
2013-01-24 23:04:00,21.0,-99.9,-100.00,ESE,119,6.0,8.0,-999,0.00,,,0.00,,2013-01-25 05:04:00,
2013-01-24 23:12:00,21.0,-99.9,-100.00,ESE,119,6.0,8.0,-999,0.00,,,0.00,,2013-01-25 05:12:00,
2013-01-24 23:22:00,21.0,-99.9,-100.00,ESE,119,6.0,8.0,-999,0.00,,,0.00,,2013-01-25 05:22:00,
2013-01-24 23:32:00,21.0,-99.9,-100.00,ESE,118,5.0,7.0,-999,0.00,,,0.00,,2013-01-25 05:32:00,
2013-01-24 23:43:00,21.0,-99.9,-100.00,ESE,118,5.0,7.0,-999,0.00,,,0.00,,2013-01-25 05:43:00,
2013-01-24 23:52:00,21.0,-99.9,-100.00,ESE,118,5.0,7.0,-999,0.00,,,0.00,,2013-01-25 05:52:00,